sensor_id;sensor_type;location;lat;lon;timestamp;temperature;humidity
6496;DHT22;3281;47.658;9.166;2024-02-16T00:00:23;9.30;1.00
6496;DHT22;3281;47.658;9.166;2024-02-16T00:02:50;9.20;1.00
6496;DHT22;3281;47.658;9.166;2024-02-16T00:05:16;9.30;1.00
6496;DHT22;3281;47.658;9.166;2024-02-16T00:07:43;9.20;1.00
6496;DHT22;3281;47.658;9.166;2024-02-16T00:10:10;9.20;1.00
6496;DHT22;3281;47.658;9.166;2024-02-16T00:12:38;9.30;1.00
6496;DHT22;3281;47.658;9.166;2024-02-16T00:15:07;9.30;1.00
6496;DHT22;3281;47.658;9.166;2024-02-16T00:17:35;9.30;1.00
6496;DHT22;3281;47.658;9.166;2024-02-16T00:20:03;9.30;1.00
6496;DHT22;3281;47.658;9.166;2024-02-16T00:22:32;9.30;1.00
6496;DHT22;3281;47.658;9.166;2024-02-16T00:24:59;9.20;1.00
6496;DHT22;3281;47.658;9.166;2024-02-16T00:27:26;9.30;1.00
6496;DHT22;3281;47.658;9.166;2024-02-16T00:29:53;9.30;1.00
6496;DHT22;3281;47.658;9.166;2024-02-16T00:32:21;9.30;1.00
6496;DHT22;3281;47.658;9.166;2024-02-16T00:34:49;9.40;1.00
6496;DHT22;3281;47.658;9.166;2024-02-16T00:37:19;9.40;1.00
6496;DHT22;3281;47.658;9.166;2024-02-16T00:39:46;9.40;1.00
6496;DHT22;3281;47.658;9.166;2024-02-16T00:42:13;9.40;1.00
6496;DHT22;3281;47.658;9.166;2024-02-16T00:44:40;9.40;1.00
6496;DHT22;3281;47.658;9.166;2024-02-16T00:47:07;9.30;1.00
6496;DHT22;3281;47.658;9.166;2024-02-16T00:49:37;9.30;1.00
6496;DHT22;3281;47.658;9.166;2024-02-16T00:52:04;9.20;1.00
6496;DHT22;3281;47.658;9.166;2024-02-16T00:54:31;9.20;1.00
6496;DHT22;3281;47.658;9.166;2024-02-16T00:56:57;9.30;1.00
6496;DHT22;3281;47.658;9.166;2024-02-16T00:59:27;9.20;1.00
6496;DHT22;3281;47.658;9.166;2024-02-16T01:01:54;9.20;1.00
6496;DHT22;3281;47.658;9.166;2024-02-16T01:04:21;9.20;1.00
6496;DHT22;3281;47.658;9.166;2024-02-16T01:06:49;9.20;1.00
6496;DHT22;3281;47.658;9.166;2024-02-16T01:09:16;9.20;1.00
6496;DHT22;3281;47.658;9.166;2024-02-16T01:11:43;9.20;1.00
6496;DHT22;3281;47.658;9.166;2024-02-16T01:14:09;9.10;1.00
6496;DHT22;3281;47.658;9.166;2024-02-16T01:16:36;9.10;1.00
6496;DHT22;3281;47.658;9.166;2024-02-16T01:19:03;9.10;1.00
6496;DHT22;3281;47.658;9.166;2024-02-16T01:21:31;9.10;1.00
6496;DHT22;3281;47.658;9.166;2024-02-16T01:23:59;9.10;1.00
6496;DHT22;3281;47.658;9.166;2024-02-16T01:26:26;9.10;1.00
6496;DHT22;3281;47.658;9.166;2024-02-16T01:28:53;9.20;1.00
6496;DHT22;3281;47.658;9.166;2024-02-16T01:31:20;9.20;1.00
6496;DHT22;3281;47.658;9.166;2024-02-16T01:33:46;9.20;1.00
6496;DHT22;3281;47.658;9.166;2024-02-16T01:36:13;9.20;1.00
6496;DHT22;3281;47.658;9.166;2024-02-16T01:38:40;9.30;1.00
6496;DHT22;3281;47.658;9.166;2024-02-16T01:41:08;9.30;1.00
6496;DHT22;3281;47.658;9.166;2024-02-16T01:43:36;9.30;1.00
6496;DHT22;3281;47.658;9.166;2024-02-16T01:46:03;9.30;1.00
6496;DHT22;3281;47.658;9.166;2024-02-16T01:48:30;9.20;1.00
6496;DHT22;3281;47.658;9.166;2024-02-16T01:50:57;9.20;1.00
6496;DHT22;3281;47.658;9.166;2024-02-16T01:53:26;9.20;1.00
6496;DHT22;3281;47.658;9.166;2024-02-16T01:55:53;9.10;1.00
6496;DHT22;3281;47.658;9.166;2024-02-16T01:58:21;9.10;1.00
6496;DHT22;3281;47.658;9.166;2024-02-16T02:00:48;9.00;1.00
6496;DHT22;3281;47.658;9.166;2024-02-16T02:03:15;9.10;1.00
6496;DHT22;3281;47.658;9.166;2024-02-16T02:05:44;9.10;1.00
6496;DHT22;3281;47.658;9.166;2024-02-16T02:08:12;9.00;1.00
6496;DHT22;3281;47.658;9.166;2024-02-16T02:10:39;9.00;1.00
6496;DHT22;3281;47.658;9.166;2024-02-16T02:13:05;9.00;1.00
6496;DHT22;3281;47.658;9.166;2024-02-16T02:15:33;8.90;1.00
6496;DHT22;3281;47.658;9.166;2024-02-16T02:18:00;9.00;1.00
6496;DHT22;3281;47.658;9.166;2024-02-16T02:20:27;8.90;1.00
6496;DHT22;3281;47.658;9.166;2024-02-16T02:22:55;8.90;1.00
6496;DHT22;3281;47.658;9.166;2024-02-16T02:25:21;9.00;1.00
6496;DHT22;3281;47.658;9.166;2024-02-16T02:27:48;8.90;1.00
6496;DHT22;3281;47.658;9.166;2024-02-16T02:30:15;9.00;1.00
6496;DHT22;3281;47.658;9.166;2024-02-16T02:32:42;8.90;1.00
6496;DHT22;3281;47.658;9.166;2024-02-16T02:35:09;8.90;1.00
6496;DHT22;3281;47.658;9.166;2024-02-16T02:37:36;8.80;1.00
6496;DHT22;3281;47.658;9.166;2024-02-16T02:40:06;8.80;1.00
6496;DHT22;3281;47.658;9.166;2024-02-16T02:42:34;8.70;1.00
6496;DHT22;3281;47.658;9.166;2024-02-16T02:45:00;8.70;1.00
6496;DHT22;3281;47.658;9.166;2024-02-16T02:47:27;8.70;1.00
6496;DHT22;3281;47.658;9.166;2024-02-16T02:49:54;8.60;1.00
6496;DHT22;3281;47.658;9.166;2024-02-16T02:52:21;8.60;1.00
6496;DHT22;3281;47.658;9.166;2024-02-16T02:54:47;8.50;1.00
6496;DHT22;3281;47.658;9.166;2024-02-16T02:57:15;8.60;1.00
6496;DHT22;3281;47.658;9.166;2024-02-16T02:59:43;8.60;1.00
6496;DHT22;3281;47.658;9.166;2024-02-16T03:02:10;8.50;1.00
6496;DHT22;3281;47.658;9.166;2024-02-16T03:04:37;8.50;1.00
6496;DHT22;3281;47.658;9.166;2024-02-16T03:07:04;8.50;1.00
6496;DHT22;3281;47.658;9.166;2024-02-16T03:09:30;8.30;1.00
6496;DHT22;3281;47.658;9.166;2024-02-16T03:11:57;8.20;1.00
6496;DHT22;3281;47.658;9.166;2024-02-16T03:14:25;8.30;1.00
6496;DHT22;3281;47.658;9.166;2024-02-16T03:16:52;8.20;1.00
6496;DHT22;3281;47.658;9.166;2024-02-16T03:19:19;8.20;1.00
6496;DHT22;3281;47.658;9.166;2024-02-16T03:21:47;8.20;1.00
6496;DHT22;3281;47.658;9.166;2024-02-16T03:24:13;8.20;1.00
6496;DHT22;3281;47.658;9.166;2024-02-16T03:26:40;8.10;1.00
6496;DHT22;3281;47.658;9.166;2024-02-16T03:29:07;8.10;1.00
6496;DHT22;3281;47.658;9.166;2024-02-16T03:31:35;8.10;1.00
6496;DHT22;3281;47.658;9.166;2024-02-16T03:34:01;8.10;1.00
6496;DHT22;3281;47.658;9.166;2024-02-16T03:36:29;8.10;1.00
6496;DHT22;3281;47.658;9.166;2024-02-16T03:38:56;8.10;1.00
6496;DHT22;3281;47.658;9.166;2024-02-16T03:41:23;8.10;1.00
6496;DHT22;3281;47.658;9.166;2024-02-16T03:43:50;8.10;1.00
6496;DHT22;3281;47.658;9.166;2024-02-16T03:46:17;8.00;1.00
6496;DHT22;3281;47.658;9.166;2024-02-16T03:48:45;8.10;1.00
6496;DHT22;3281;47.658;9.166;2024-02-16T03:51:12;8.10;1.00
6496;DHT22;3281;47.658;9.166;2024-02-16T03:53:39;8.10;1.00
6496;DHT22;3281;47.658;9.166;2024-02-16T03:56:06;8.10;1.00
6496;DHT22;3281;47.658;9.166;2024-02-16T03:58:33;8.10;1.00
6496;DHT22;3281;47.658;9.166;2024-02-16T04:00:59;8.10;1.00
6496;DHT22;3281;47.658;9.166;2024-02-16T04:03:26;8.00;1.00
6496;DHT22;3281;47.658;9.166;2024-02-16T04:05:54;8.00;1.00
6496;DHT22;3281;47.658;9.166;2024-02-16T04:08:21;8.00;1.00
6496;DHT22;3281;47.658;9.166;2024-02-16T04:10:48;8.00;1.00
6496;DHT22;3281;47.658;9.166;2024-02-16T04:13:14;7.90;1.00
6496;DHT22;3281;47.658;9.166;2024-02-16T04:15:41;7.90;1.00
6496;DHT22;3281;47.658;9.166;2024-02-16T04:18:08;8.00;1.00
6496;DHT22;3281;47.658;9.166;2024-02-16T04:20:34;8.00;1.00
6496;DHT22;3281;47.658;9.166;2024-02-16T04:23:03;8.10;1.00
6496;DHT22;3281;47.658;9.166;2024-02-16T04:25:29;8.00;1.00
6496;DHT22;3281;47.658;9.166;2024-02-16T04:27:56;8.00;1.00
6496;DHT22;3281;47.658;9.166;2024-02-16T04:30:23;8.00;1.00
6496;DHT22;3281;47.658;9.166;2024-02-16T04:32:50;7.90;1.00
6496;DHT22;3281;47.658;9.166;2024-02-16T04:35:16;7.90;1.00
6496;DHT22;3281;47.658;9.166;2024-02-16T04:37:43;7.90;1.00
6496;DHT22;3281;47.658;9.166;2024-02-16T04:40:11;7.80;1.00
6496;DHT22;3281;47.658;9.166;2024-02-16T04:42:38;7.80;1.00
6496;DHT22;3281;47.658;9.166;2024-02-16T04:45:07;7.80;1.00
6496;DHT22;3281;47.658;9.166;2024-02-16T04:47:34;7.90;1.00
6496;DHT22;3281;47.658;9.166;2024-02-16T04:50:00;7.90;1.00
6496;DHT22;3281;47.658;9.166;2024-02-16T04:52:28;7.80;1.00
6496;DHT22;3281;47.658;9.166;2024-02-16T04:54:55;7.80;1.00
6496;DHT22;3281;47.658;9.166;2024-02-16T04:57:23;7.70;1.00
6496;DHT22;3281;47.658;9.166;2024-02-16T04:59:49;7.70;1.00
6496;DHT22;3281;47.658;9.166;2024-02-16T05:02:17;7.70;1.00
6496;DHT22;3281;47.658;9.166;2024-02-16T05:04:43;7.60;1.00
6496;DHT22;3281;47.658;9.166;2024-02-16T05:07:10;7.60;1.00
6496;DHT22;3281;47.658;9.166;2024-02-16T05:09:37;7.70;1.00
6496;DHT22;3281;47.658;9.166;2024-02-16T05:12:05;7.70;1.00
6496;DHT22;3281;47.658;9.166;2024-02-16T05:14:35;7.80;1.00
6496;DHT22;3281;47.658;9.166;2024-02-16T05:17:02;7.80;1.00
6496;DHT22;3281;47.658;9.166;2024-02-16T05:19:32;7.80;1.00
6496;DHT22;3281;47.658;9.166;2024-02-16T05:21:59;7.80;1.00
6496;DHT22;3281;47.658;9.166;2024-02-16T05:24:25;7.80;1.00
6496;DHT22;3281;47.658;9.166;2024-02-16T05:26:52;7.80;1.00
6496;DHT22;3281;47.658;9.166;2024-02-16T05:29:19;7.80;1.00
6496;DHT22;3281;47.658;9.166;2024-02-16T05:31:50;7.80;1.00
6496;DHT22;3281;47.658;9.166;2024-02-16T05:34:17;7.70;1.00
6496;DHT22;3281;47.658;9.166;2024-02-16T05:36:44;7.70;1.00
6496;DHT22;3281;47.658;9.166;2024-02-16T05:39:11;7.70;1.00
6496;DHT22;3281;47.658;9.166;2024-02-16T05:41:52;7.70;1.00
6496;DHT22;3281;47.658;9.166;2024-02-16T05:44:18;7.70;1.00
6496;DHT22;3281;47.658;9.166;2024-02-16T05:46:47;7.60;1.00
6496;DHT22;3281;47.658;9.166;2024-02-16T05:49:14;7.60;1.00
6496;DHT22;3281;47.658;9.166;2024-02-16T05:51:41;7.60;1.00
6496;DHT22;3281;47.658;9.166;2024-02-16T05:54:24;7.60;1.00
6496;DHT22;3281;47.658;9.166;2024-02-16T05:56:51;7.50;1.00
6496;DHT22;3281;47.658;9.166;2024-02-16T05:59:17;7.40;1.00
6496;DHT22;3281;47.658;9.166;2024-02-16T06:01:44;7.40;1.00
6496;DHT22;3281;47.658;9.166;2024-02-16T06:04:12;7.30;1.00
6496;DHT22;3281;47.658;9.166;2024-02-16T06:06:39;7.40;1.00
6496;DHT22;3281;47.658;9.166;2024-02-16T06:09:05;7.50;1.00
6496;DHT22;3281;47.658;9.166;2024-02-16T06:11:33;7.50;1.00
6496;DHT22;3281;47.658;9.166;2024-02-16T06:13:59;7.50;1.00
6496;DHT22;3281;47.658;9.166;2024-02-16T06:16:27;7.60;1.00
6496;DHT22;3281;47.658;9.166;2024-02-16T06:18:54;7.60;1.00
6496;DHT22;3281;47.658;9.166;2024-02-16T06:21:22;7.60;1.00
6496;DHT22;3281;47.658;9.166;2024-02-16T06:23:49;7.60;1.00
6496;DHT22;3281;47.658;9.166;2024-02-16T06:26:15;7.70;1.00
6496;DHT22;3281;47.658;9.166;2024-02-16T06:28:42;7.70;1.00
6496;DHT22;3281;47.658;9.166;2024-02-16T06:31:09;7.70;1.00
6496;DHT22;3281;47.658;9.166;2024-02-16T06:33:36;7.80;1.00
6496;DHT22;3281;47.658;9.166;2024-02-16T06:36:03;7.90;1.00
6496;DHT22;3281;47.658;9.166;2024-02-16T06:38:31;8.00;1.00
6496;DHT22;3281;47.658;9.166;2024-02-16T06:40:58;8.10;1.00
6496;DHT22;3281;47.658;9.166;2024-02-16T06:43:24;8.10;1.00
6496;DHT22;3281;47.658;9.166;2024-02-16T06:45:51;8.20;1.00
6496;DHT22;3281;47.658;9.166;2024-02-16T06:48:20;8.20;1.00
6496;DHT22;3281;47.658;9.166;2024-02-16T06:50:47;8.30;1.00
6496;DHT22;3281;47.658;9.166;2024-02-16T06:53:14;8.30;1.00
6496;DHT22;3281;47.658;9.166;2024-02-16T06:55:42;8.40;1.00
6496;DHT22;3281;47.658;9.166;2024-02-16T06:58:08;8.40;1.00
6496;DHT22;3281;47.658;9.166;2024-02-16T07:00:35;8.50;1.00
6496;DHT22;3281;47.658;9.166;2024-02-16T07:03:02;8.60;1.00
6496;DHT22;3281;47.658;9.166;2024-02-16T07:05:29;8.60;1.00
6496;DHT22;3281;47.658;9.166;2024-02-16T07:07:56;8.70;1.00
6496;DHT22;3281;47.658;9.166;2024-02-16T07:10:24;8.70;1.00
6496;DHT22;3281;47.658;9.166;2024-02-16T07:12:52;8.80;1.00
6496;DHT22;3281;47.658;9.166;2024-02-16T07:15:19;8.80;1.00
6496;DHT22;3281;47.658;9.166;2024-02-16T07:17:45;8.90;1.00
6496;DHT22;3281;47.658;9.166;2024-02-16T07:20:12;9.00;1.00
6496;DHT22;3281;47.658;9.166;2024-02-16T07:22:40;9.00;1.00
6496;DHT22;3281;47.658;9.166;2024-02-16T07:25:08;9.10;1.00
6496;DHT22;3281;47.658;9.166;2024-02-16T07:27:35;9.10;1.00
6496;DHT22;3281;47.658;9.166;2024-02-16T07:30:04;9.20;1.00
6496;DHT22;3281;47.658;9.166;2024-02-16T07:32:31;9.30;1.00
6496;DHT22;3281;47.658;9.166;2024-02-16T07:34:59;9.30;1.00
6496;DHT22;3281;47.658;9.166;2024-02-16T07:37:26;9.40;1.00
6496;DHT22;3281;47.658;9.166;2024-02-16T07:39:52;9.50;1.00
6496;DHT22;3281;47.658;9.166;2024-02-16T07:42:19;9.60;1.00
6496;DHT22;3281;47.658;9.166;2024-02-16T07:44:46;9.70;1.00
6496;DHT22;3281;47.658;9.166;2024-02-16T07:47:14;9.80;1.00
6496;DHT22;3281;47.658;9.166;2024-02-16T07:49:41;9.80;1.00
6496;DHT22;3281;47.658;9.166;2024-02-16T07:52:07;9.80;1.00
6496;DHT22;3281;47.658;9.166;2024-02-16T07:54:34;9.90;1.00
6496;DHT22;3281;47.658;9.166;2024-02-16T07:57:01;10.00;1.00
6496;DHT22;3281;47.658;9.166;2024-02-16T07:59:29;10.00;1.00
6496;DHT22;3281;47.658;9.166;2024-02-16T08:01:56;10.00;1.00
6496;DHT22;3281;47.658;9.166;2024-02-16T08:04:24;10.10;1.00
6496;DHT22;3281;47.658;9.166;2024-02-16T08:06:50;10.20;1.00
6496;DHT22;3281;47.658;9.166;2024-02-16T08:09:17;10.40;1.00
6496;DHT22;3281;47.658;9.166;2024-02-16T08:11:44;10.60;1.00
6496;DHT22;3281;47.658;9.166;2024-02-16T08:14:11;10.70;1.00
6496;DHT22;3281;47.658;9.166;2024-02-16T08:16:38;10.80;1.00
6496;DHT22;3281;47.658;9.166;2024-02-16T08:19:04;10.80;1.00
6496;DHT22;3281;47.658;9.166;2024-02-16T08:21:32;11.00;1.00
6496;DHT22;3281;47.658;9.166;2024-02-16T08:23:59;11.00;1.00
6496;DHT22;3281;47.658;9.166;2024-02-16T08:26:27;11.10;1.00
6496;DHT22;3281;47.658;9.166;2024-02-16T08:28:53;11.20;1.00
6496;DHT22;3281;47.658;9.166;2024-02-16T08:31:20;11.40;1.00
6496;DHT22;3281;47.658;9.166;2024-02-16T08:33:47;11.40;1.00
6496;DHT22;3281;47.658;9.166;2024-02-16T08:36:14;11.50;1.00
6496;DHT22;3281;47.658;9.166;2024-02-16T08:38:42;11.50;1.00
6496;DHT22;3281;47.658;9.166;2024-02-16T08:41:09;11.60;1.00
6496;DHT22;3281;47.658;9.166;2024-02-16T08:43:36;11.60;1.00
6496;DHT22;3281;47.658;9.166;2024-02-16T08:46:03;11.70;1.00
6496;DHT22;3281;47.658;9.166;2024-02-16T08:48:30;11.50;1.00
6496;DHT22;3281;47.658;9.166;2024-02-16T08:50:56;11.50;1.00
6496;DHT22;3281;47.658;9.166;2024-02-16T08:53:23;11.60;1.00
6496;DHT22;3281;47.658;9.166;2024-02-16T08:55:51;11.60;1.00
6496;DHT22;3281;47.658;9.166;2024-02-16T08:58:18;11.50;1.00
6496;DHT22;3281;47.658;9.166;2024-02-16T09:00:45;11.40;1.00
6496;DHT22;3281;47.658;9.166;2024-02-16T09:03:13;11.30;1.00
6496;DHT22;3281;47.658;9.166;2024-02-16T09:05:41;11.20;1.00
6496;DHT22;3281;47.658;9.166;2024-02-16T09:08:09;11.20;1.00
6496;DHT22;3281;47.658;9.166;2024-02-16T09:10:36;11.10;1.00
6496;DHT22;3281;47.658;9.166;2024-02-16T09:13:04;11.30;1.00
6496;DHT22;3281;47.658;9.166;2024-02-16T09:15:31;11.30;1.00
6496;DHT22;3281;47.658;9.166;2024-02-16T09:17:57;11.60;1.00
6496;DHT22;3281;47.658;9.166;2024-02-16T09:20:24;11.80;1.00
6496;DHT22;3281;47.658;9.166;2024-02-16T09:22:51;12.10;1.00
6496;DHT22;3281;47.658;9.166;2024-02-16T09:25:17;12.40;1.00
6496;DHT22;3281;47.658;9.166;2024-02-16T09:27:44;12.60;1.00
6496;DHT22;3281;47.658;9.166;2024-02-16T09:30:13;13.20;1.00
6496;DHT22;3281;47.658;9.166;2024-02-16T09:32:40;13.70;1.00
6496;DHT22;3281;47.658;9.166;2024-02-16T09:35:07;14.20;1.00
6496;DHT22;3281;47.658;9.166;2024-02-16T09:37:34;14.80;1.00
6496;DHT22;3281;47.658;9.166;2024-02-16T09:40:03;15.30;1.00
6496;DHT22;3281;47.658;9.166;2024-02-16T09:42:30;15.80;1.00
6496;DHT22;3281;47.658;9.166;2024-02-16T09:44:57;16.30;1.00
6496;DHT22;3281;47.658;9.166;2024-02-16T09:47:25;16.60;1.00
6496;DHT22;3281;47.658;9.166;2024-02-16T09:49:55;17.20;1.00
6496;DHT22;3281;47.658;9.166;2024-02-16T09:52:22;17.50;1.00
6496;DHT22;3281;47.658;9.166;2024-02-16T09:54:50;17.40;1.00
6496;DHT22;3281;47.658;9.166;2024-02-16T09:57:17;17.80;1.00
6496;DHT22;3281;47.658;9.166;2024-02-16T09:59:44;18.00;1.00
6496;DHT22;3281;47.658;9.166;2024-02-16T10:02:11;18.40;1.00
6496;DHT22;3281;47.658;9.166;2024-02-16T10:04:39;18.70;1.00
6496;DHT22;3281;47.658;9.166;2024-02-16T10:07:05;18.60;1.00
6496;DHT22;3281;47.658;9.166;2024-02-16T10:09:32;18.30;1.00
6496;DHT22;3281;47.658;9.166;2024-02-16T10:11:59;18.40;1.00
6496;DHT22;3281;47.658;9.166;2024-02-16T10:14:26;18.30;1.00
6496;DHT22;3281;47.658;9.166;2024-02-16T10:16:59;18.10;1.00
6496;DHT22;3281;47.658;9.166;2024-02-16T10:19:28;18.00;1.00
6496;DHT22;3281;47.658;9.166;2024-02-16T10:22:07;17.90;1.00
6496;DHT22;3281;47.658;9.166;2024-02-16T10:24:34;18.20;1.00
6496;DHT22;3281;47.658;9.166;2024-02-16T10:27:00;18.70;1.00
6496;DHT22;3281;47.658;9.166;2024-02-16T10:29:27;19.00;1.00
6496;DHT22;3281;47.658;9.166;2024-02-16T10:31:54;19.40;1.00
6496;DHT22;3281;47.658;9.166;2024-02-16T10:34:23;19.40;1.00
6496;DHT22;3281;47.658;9.166;2024-02-16T10:36:51;19.50;1.00
6496;DHT22;3281;47.658;9.166;2024-02-16T10:39:19;19.10;1.00
6496;DHT22;3281;47.658;9.166;2024-02-16T10:41:47;18.90;1.00
6496;DHT22;3281;47.658;9.166;2024-02-16T10:44:15;19.10;1.00
6496;DHT22;3281;47.658;9.166;2024-02-16T10:46:41;19.40;1.00
6496;DHT22;3281;47.658;9.166;2024-02-16T10:49:08;19.40;1.00
6496;DHT22;3281;47.658;9.166;2024-02-16T10:51:37;19.20;1.00
6496;DHT22;3281;47.658;9.166;2024-02-16T10:54:06;18.90;1.00
6496;DHT22;3281;47.658;9.166;2024-02-16T10:56:35;18.80;1.00
6496;DHT22;3281;47.658;9.166;2024-02-16T10:59:02;19.60;1.00
6496;DHT22;3281;47.658;9.166;2024-02-16T11:01:32;20.90;1.00
6496;DHT22;3281;47.658;9.166;2024-02-16T11:04:01;21.30;1.00
6496;DHT22;3281;47.658;9.166;2024-02-16T11:06:28;21.00;1.00
6496;DHT22;3281;47.658;9.166;2024-02-16T11:09:01;20.60;1.00
6496;DHT22;3281;47.658;9.166;2024-02-16T11:11:34;20.00;1.00
6496;DHT22;3281;47.658;9.166;2024-02-16T11:14:01;20.00;1.00
6496;DHT22;3281;47.658;9.166;2024-02-16T11:16:29;20.70;1.00
6496;DHT22;3281;47.658;9.166;2024-02-16T11:18:56;20.90;1.00
6496;DHT22;3281;47.658;9.166;2024-02-16T11:21:23;21.00;1.00
6496;DHT22;3281;47.658;9.166;2024-02-16T11:23:50;21.40;1.00
6496;DHT22;3281;47.658;9.166;2024-02-16T11:26:17;21.60;1.00
6496;DHT22;3281;47.658;9.166;2024-02-16T11:28:46;21.40;1.00
6496;DHT22;3281;47.658;9.166;2024-02-16T11:31:13;21.50;1.00
6496;DHT22;3281;47.658;9.166;2024-02-16T11:33:43;21.80;1.00
6496;DHT22;3281;47.658;9.166;2024-02-16T11:36:10;21.70;1.00
6496;DHT22;3281;47.658;9.166;2024-02-16T11:38:37;21.10;1.00
6496;DHT22;3281;47.658;9.166;2024-02-16T11:41:06;21.00;1.00
6496;DHT22;3281;47.658;9.166;2024-02-16T11:43:33;20.80;1.00
6496;DHT22;3281;47.658;9.166;2024-02-16T11:46:12;20.60;1.00
6496;DHT22;3281;47.658;9.166;2024-02-16T11:48:39;20.80;1.00
6496;DHT22;3281;47.658;9.166;2024-02-16T11:51:06;20.70;1.00
6496;DHT22;3281;47.658;9.166;2024-02-16T11:53:33;20.40;1.00
6496;DHT22;3281;47.658;9.166;2024-02-16T11:56:00;20.40;1.00
6496;DHT22;3281;47.658;9.166;2024-02-16T11:58:27;20.60;1.00
6496;DHT22;3281;47.658;9.166;2024-02-16T12:00:56;21.20;1.00
6496;DHT22;3281;47.658;9.166;2024-02-16T12:03:26;21.70;1.00
6496;DHT22;3281;47.658;9.166;2024-02-16T12:05:54;22.00;1.00
6496;DHT22;3281;47.658;9.166;2024-02-16T12:08:21;23.10;1.00
6496;DHT22;3281;47.658;9.166;2024-02-16T12:10:49;23.90;1.00
6496;DHT22;3281;47.658;9.166;2024-02-16T12:13:16;24.80;1.00
6496;DHT22;3281;47.658;9.166;2024-02-16T12:15:44;25.00;1.00
6496;DHT22;3281;47.658;9.166;2024-02-16T12:18:18;25.60;1.00
6496;DHT22;3281;47.658;9.166;2024-02-16T12:20:56;25.70;1.00
6496;DHT22;3281;47.658;9.166;2024-02-16T12:23:23;24.90;1.00
6496;DHT22;3281;47.658;9.166;2024-02-16T12:25:50;24.70;1.00
6496;DHT22;3281;47.658;9.166;2024-02-16T12:28:16;24.70;1.00
6496;DHT22;3281;47.658;9.166;2024-02-16T12:30:43;24.20;1.00
6496;DHT22;3281;47.658;9.166;2024-02-16T12:33:10;23.90;1.00
6496;DHT22;3281;47.658;9.166;2024-02-16T12:35:37;23.40;1.00
6496;DHT22;3281;47.658;9.166;2024-02-16T12:38:05;23.10;1.00
6496;DHT22;3281;47.658;9.166;2024-02-16T12:40:32;22.70;1.00
6496;DHT22;3281;47.658;9.166;2024-02-16T12:42:58;21.90;1.00
6496;DHT22;3281;47.658;9.166;2024-02-16T12:45:25;21.70;1.00
6496;DHT22;3281;47.658;9.166;2024-02-16T12:47:52;21.30;1.00
6496;DHT22;3281;47.658;9.166;2024-02-16T12:50:18;20.90;1.00
6496;DHT22;3281;47.658;9.166;2024-02-16T12:52:45;20.50;1.00
6496;DHT22;3281;47.658;9.166;2024-02-16T12:55:13;20.30;1.00
6496;DHT22;3281;47.658;9.166;2024-02-16T12:57:41;20.20;1.00
6496;DHT22;3281;47.658;9.166;2024-02-16T13:00:08;19.90;1.00
6496;DHT22;3281;47.658;9.166;2024-02-16T13:02:36;19.80;1.00
6496;DHT22;3281;47.658;9.166;2024-02-16T13:05:03;19.90;1.00
6496;DHT22;3281;47.658;9.166;2024-02-16T13:07:31;20.00;1.00
6496;DHT22;3281;47.658;9.166;2024-02-16T13:09:57;19.80;1.00
6496;DHT22;3281;47.658;9.166;2024-02-16T13:12:25;19.70;1.00
6496;DHT22;3281;47.658;9.166;2024-02-16T13:14:52;19.70;1.00
6496;DHT22;3281;47.658;9.166;2024-02-16T13:17:19;19.70;1.00
6496;DHT22;3281;47.658;9.166;2024-02-16T13:19:46;19.40;1.00
6496;DHT22;3281;47.658;9.166;2024-02-16T13:22:13;19.40;1.00
6496;DHT22;3281;47.658;9.166;2024-02-16T13:24:40;19.40;1.00
6496;DHT22;3281;47.658;9.166;2024-02-16T13:27:08;19.10;1.00
6496;DHT22;3281;47.658;9.166;2024-02-16T13:29:36;18.70;1.00
6496;DHT22;3281;47.658;9.166;2024-02-16T13:32:02;18.50;1.00
6496;DHT22;3281;47.658;9.166;2024-02-16T13:34:29;18.30;1.00
6496;DHT22;3281;47.658;9.166;2024-02-16T13:36:56;18.10;1.00
6496;DHT22;3281;47.658;9.166;2024-02-16T13:39:23;18.20;1.00
6496;DHT22;3281;47.658;9.166;2024-02-16T13:41:51;18.30;1.00
6496;DHT22;3281;47.658;9.166;2024-02-16T13:44:17;18.70;1.00
6496;DHT22;3281;47.658;9.166;2024-02-16T13:46:46;18.50;1.00
6496;DHT22;3281;47.658;9.166;2024-02-16T13:49:13;18.40;1.00
6496;DHT22;3281;47.658;9.166;2024-02-16T13:51:41;18.40;1.00
6496;DHT22;3281;47.658;9.166;2024-02-16T13:54:08;18.40;1.00
6496;DHT22;3281;47.658;9.166;2024-02-16T13:56:35;18.20;99.90
6496;DHT22;3281;47.658;9.166;2024-02-16T13:59:04;18.00;99.90
6496;DHT22;3281;47.658;9.166;2024-02-16T14:01:32;17.90;99.90
6496;DHT22;3281;47.658;9.166;2024-02-16T14:04:01;18.00;99.90
6496;DHT22;3281;47.658;9.166;2024-02-16T14:06:28;18.10;99.90
6496;DHT22;3281;47.658;9.166;2024-02-16T14:08:56;18.20;99.90
6496;DHT22;3281;47.658;9.166;2024-02-16T14:11:23;18.10;99.90
6496;DHT22;3281;47.658;9.166;2024-02-16T14:13:50;18.00;99.90
6496;DHT22;3281;47.658;9.166;2024-02-16T14:16:16;18.00;99.90
6496;DHT22;3281;47.658;9.166;2024-02-16T14:18:43;17.80;99.90
6496;DHT22;3281;47.658;9.166;2024-02-16T14:21:11;17.60;99.90
6496;DHT22;3281;47.658;9.166;2024-02-16T14:23:38;17.30;99.90
6496;DHT22;3281;47.658;9.166;2024-02-16T14:26:04;17.10;99.90
6496;DHT22;3281;47.658;9.166;2024-02-16T14:28:31;16.90;99.90
6496;DHT22;3281;47.658;9.166;2024-02-16T14:30:58;16.90;99.90
6496;DHT22;3281;47.658;9.166;2024-02-16T14:33:24;16.80;99.90
6496;DHT22;3281;47.658;9.166;2024-02-16T14:35:51;16.70;99.90
6496;DHT22;3281;47.658;9.166;2024-02-16T14:38:19;16.80;99.90
6496;DHT22;3281;47.658;9.166;2024-02-16T14:40:46;16.80;99.90
6496;DHT22;3281;47.658;9.166;2024-02-16T14:43:13;16.70;99.90
6496;DHT22;3281;47.658;9.166;2024-02-16T14:45:40;16.90;99.90
6496;DHT22;3281;47.658;9.166;2024-02-16T14:48:07;16.60;99.90
6496;DHT22;3281;47.658;9.166;2024-02-16T14:50:34;16.50;99.90
6496;DHT22;3281;47.658;9.166;2024-02-16T14:53:01;16.50;99.90
6496;DHT22;3281;47.658;9.166;2024-02-16T14:55:30;16.50;99.90
6496;DHT22;3281;47.658;9.166;2024-02-16T14:57:57;16.50;99.90
6496;DHT22;3281;47.658;9.166;2024-02-16T15:00:23;16.50;99.90
6496;DHT22;3281;47.658;9.166;2024-02-16T15:02:50;16.40;99.90
6496;DHT22;3281;47.658;9.166;2024-02-16T15:05:17;16.30;99.90
6496;DHT22;3281;47.658;9.166;2024-02-16T15:07:43;16.20;99.90
6496;DHT22;3281;47.658;9.166;2024-02-16T15:10:10;16.30;99.90
6496;DHT22;3281;47.658;9.166;2024-02-16T15:12:39;16.10;99.90
6496;DHT22;3281;47.658;9.166;2024-02-16T15:15:08;16.00;99.90
6496;DHT22;3281;47.658;9.166;2024-02-16T15:17:35;15.90;99.90
6496;DHT22;3281;47.658;9.166;2024-02-16T15:20:02;15.80;99.90
6496;DHT22;3281;47.658;9.166;2024-02-16T15:22:30;15.80;99.90
6496;DHT22;3281;47.658;9.166;2024-02-16T15:24:57;15.90;99.90
6496;DHT22;3281;47.658;9.166;2024-02-16T15:27:24;15.90;99.90
6496;DHT22;3281;47.658;9.166;2024-02-16T15:29:52;15.90;99.90
6496;DHT22;3281;47.658;9.166;2024-02-16T15:32:19;16.00;99.90
6496;DHT22;3281;47.658;9.166;2024-02-16T15:34:46;16.00;99.90
6496;DHT22;3281;47.658;9.166;2024-02-16T15:37:18;16.00;99.90
6496;DHT22;3281;47.658;9.166;2024-02-16T15:39:45;15.90;99.90
6496;DHT22;3281;47.658;9.166;2024-02-16T15:42:12;15.90;99.90
6496;DHT22;3281;47.658;9.166;2024-02-16T15:44:38;15.90;99.90
6496;DHT22;3281;47.658;9.166;2024-02-16T15:47:06;15.90;99.90
6496;DHT22;3281;47.658;9.166;2024-02-16T15:49:35;15.80;99.90
6496;DHT22;3281;47.658;9.166;2024-02-16T15:52:03;15.80;99.90
6496;DHT22;3281;47.658;9.166;2024-02-16T15:54:30;15.80;99.90
6496;DHT22;3281;47.658;9.166;2024-02-16T15:56:56;15.80;99.90
6496;DHT22;3281;47.658;9.166;2024-02-16T15:59:23;15.70;99.90
6496;DHT22;3281;47.658;9.166;2024-02-16T16:01:50;15.70;99.90
6496;DHT22;3281;47.658;9.166;2024-02-16T16:04:18;15.70;99.90
6496;DHT22;3281;47.658;9.166;2024-02-16T16:06:44;15.70;99.90
6496;DHT22;3281;47.658;9.166;2024-02-16T16:09:11;15.60;99.90
6496;DHT22;3281;47.658;9.166;2024-02-16T16:11:38;15.60;99.90
6496;DHT22;3281;47.658;9.166;2024-02-16T16:14:05;15.60;99.90
6496;DHT22;3281;47.658;9.166;2024-02-16T16:16:32;15.50;99.90
6496;DHT22;3281;47.658;9.166;2024-02-16T16:18:59;15.50;99.90
6496;DHT22;3281;47.658;9.166;2024-02-16T16:21:27;15.50;99.90
6496;DHT22;3281;47.658;9.166;2024-02-16T16:23:53;15.50;99.90